Time,TemperatureF,DewpointF,PressureIn,WindDirection,WindDirectionDegrees,WindSpeedMPH,WindSpeedGustMPH,Humidity,HourlyPrecipIn,Conditions,Clouds,dailyrainin,SolarRadiationWatts/m^2,SoftwareType,DateUTC
2013-09-19 00:03:00,76.2,71.0,29.87,SSW,198,9.2,9.2,84,0.00,RA,,0.00,0.0,WeatherDisplay:10.37,2013-09-19 05:03:00,
2013-09-19 00:08:00,76.1,70.9,29.86,SSE,168,4.6,4.6,84,0.00,RA,,0.00,0.0,WeatherDisplay:10.37,2013-09-19 05:08:00,
2013-09-19 00:13:00,76.0,70.8,29.86,South,188,2.3,2.3,84,0.00,CLR,,0.00,0.0,WeatherDisplay:10.37,2013-09-19 05:13:00,
2013-09-19 00:18:00,75.9,70.7,29.87,South,188,3.5,3.5,84,0.00,CLR,,0.00,0.0,WeatherDisplay:10.37,2013-09-19 05:18:00,
2013-09-19 00:23:00,75.9,70.7,29.87,South,172,11.5,11.5,84,0.00,CLR,,0.00,0.0,WeatherDisplay:10.37,2013-09-19 05:23:00,
2013-09-19 00:28:00,75.8,70.6,29.86,South,169,10.4,10.4,84,0.00,CLR,,0.00,0.0,WeatherDisplay:10.37,2013-09-19 05:28:00,
2013-09-19 00:33:00,75.7,70.9,29.86,SSW,198,6.9,6.9,85,0.00,CLR,,0.00,0.0,WeatherDisplay:10.37,2013-09-19 05:33:00,
2013-09-19 00:38:00,75.7,70.9,29.86,SE,138,13.8,13.8,85,0.00,CLR,,0.00,0.0,WeatherDisplay:10.37,2013-09-19 05:38:00,
2013-09-19 00:43:00,75.6,70.8,29.86,South,185,10.4,10.4,85,0.00,CLR,,0.00,0.0,WeatherDisplay:10.37,2013-09-19 05:43:00,
2013-09-19 00:48:00,75.5,70.7,29.86,SSW,197,11.5,11.5,85,0.00,CLR,,0.00,0.0,WeatherDisplay:10.37,2013-09-19 05:48:00,
2013-09-19 00:53:00,75.5,70.7,29.86,South,178,6.9,6.9,85,0.00,CLR,,0.00,0.0,WeatherDisplay:10.37,2013-09-19 05:53:00,
2013-09-19 00:58:00,75.4,70.6,29.86,SSE,165,10.4,10.4,85,0.00,CLR,,0.00,0.0,WeatherDisplay:10.37,2013-09-19 05:58:00,
2013-09-19 01:03:00,75.4,70.6,29.86,SSE,167,11.5,11.5,85,0.00,CLR,,0.00,0.0,WeatherDisplay:10.37,2013-09-19 06:03:00,
2013-09-19 01:08:00,75.3,70.5,29.86,SSE,166,6.9,6.9,85,0.00,CLR,,0.00,0.0,WeatherDisplay:10.37,2013-09-19 06:08:00,
2013-09-19 01:13:00,75.2,70.4,29.86,South,180,4.0,4.0,85,0.00,CLR,,0.00,0.0,WeatherDisplay:10.37,2013-09-19 06:13:00,
2013-09-19 01:18:00,75.1,70.3,29.86,SSE,163,6.9,6.9,85,0.00,CLR,,0.00,0.0,WeatherDisplay:10.37,2013-09-19 06:18:00,
2013-09-19 01:23:00,75.1,70.3,29.86,South,191,4.6,4.6,85,0.00,CLR,,0.00,0.0,WeatherDisplay:10.37,2013-09-19 06:23:00,
2013-09-19 01:28:00,75.0,70.2,29.86,SSE,165,3.5,3.5,85,0.00,CLR,,0.00,0.0,WeatherDisplay:10.37,2013-09-19 06:28:00,
2013-09-19 01:33:00,74.9,70.4,29.86,SSE,165,0.0,0.0,86,0.00,CLR,,0.00,0.0,WeatherDisplay:10.37,2013-09-19 06:33:00,
2013-09-19 01:38:00,74.8,70.3,29.87,South,171,5.8,5.8,86,0.00,CLR,,0.00,0.0,WeatherDisplay:10.37,2013-09-19 06:38:00,
2013-09-19 01:43:00,74.8,70.3,29.86,South,182,5.8,5.8,86,0.00,CLR,,0.00,0.0,WeatherDisplay:10.37,2013-09-19 06:43:00,
2013-09-19 01:48:00,74.7,70.2,29.86,South,191,8.1,8.1,86,0.00,CLR,,0.00,0.0,WeatherDisplay:10.37,2013-09-19 06:48:00,
2013-09-19 01:53:00,74.6,70.1,29.86,South,191,3.5,3.5,86,0.00,CLR,,0.00,0.0,WeatherDisplay:10.37,2013-09-19 06:53:00,
2013-09-19 01:58:00,74.6,70.1,29.86,South,171,11.5,11.5,86,0.00,CLR,,0.00,0.0,WeatherDisplay:10.37,2013-09-19 06:58:00,
2013-09-19 02:03:00,74.4,70.3,29.86,SSW,205,4.6,4.6,87,0.00,CLR,,0.00,0.0,WeatherDisplay:10.37,2013-09-19 07:03:00,
2013-09-19 02:08:00,74.4,70.3,29.86,South,184,0.0,0.0,87,0.00,CLR,,0.00,0.0,WeatherDisplay:10.37,2013-09-19 07:08:00,
2013-09-19 02:13:00,74.3,70.2,29.86,South,181,3.5,3.5,87,0.00,CLR,,0.00,0.0,WeatherDisplay:10.37,2013-09-19 07:13:00,
2013-09-19 02:18:00,74.2,70.1,29.86,SSW,197,3.5,4.2,87,0.00,CLR,,0.00,0.0,WeatherDisplay:10.37,2013-09-19 07:18:00,
2013-09-19 02:23:00,74.2,70.1,29.86,South,169,4.6,4.6,87,0.00,CLR,,0.00,0.0,WeatherDisplay:10.37,2013-09-19 07:23:00,
2013-09-19 02:28:00,74.1,70.0,29.86,SE,144,3.5,3.5,87,0.00,CLR,,0.00,0.0,WeatherDisplay:10.37,2013-09-19 07:28:00,
2013-09-19 02:33:00,74.1,70.0,29.86,SSW,211,12.7,12.7,87,0.00,CLR,,0.00,0.0,WeatherDisplay:10.37,2013-09-19 07:33:00,
2013-09-19 02:38:00,74.0,69.9,29.86,SSW,202,0.0,1.5,87,0.00,CLR,,0.00,0.0,WeatherDisplay:10.37,2013-09-19 07:38:00,
2013-09-19 02:43:00,74.0,69.9,29.86,South,182,5.8,5.8,87,0.00,CLR,,0.00,0.0,WeatherDisplay:10.37,2013-09-19 07:43:00,
2013-09-19 02:48:00,73.9,69.8,29.86,South,190,9.2,9.2,87,0.00,CLR,,0.00,0.0,WeatherDisplay:10.37,2013-09-19 07:48:00,
2013-09-19 02:53:00,73.8,69.7,29.86,SSW,200,3.5,3.5,87,0.00,CLR,,0.00,0.0,WeatherDisplay:10.37,2013-09-19 07:53:00,
2013-09-19 02:58:00,73.8,69.7,29.86,South,173,8.1,8.1,87,0.00,CLR,,0.00,0.0,WeatherDisplay:10.37,2013-09-19 07:58:00,
2013-09-19 03:03:00,73.7,69.6,29.86,South,191,4.6,4.6,87,0.00,CLR,,0.00,0.0,WeatherDisplay:10.37,2013-09-19 08:03:00,
2013-09-19 03:08:00,73.7,69.6,29.86,SSE,154,4.6,4.6,87,0.00,CLR,,0.00,0.0,WeatherDisplay:10.37,2013-09-19 08:08:00,
2013-09-19 03:13:00,73.6,69.5,29.85,SSE,156,11.5,11.5,87,0.00,CLR,,0.00,0.0,WeatherDisplay:10.37,2013-09-19 08:13:00,
2013-09-19 03:18:00,73.6,69.5,29.85,SSW,195,11.5,11.5,87,0.00,CLR,,0.00,0.0,WeatherDisplay:10.37,2013-09-19 08:18:00,
2013-09-19 03:23:00,73.6,69.5,29.85,South,190,3.0,0.0,87,0.00,CLR,,0.00,0.0,WeatherDisplay:10.37,2013-09-19 08:23:00,
2013-09-19 03:28:00,73.6,69.5,29.85,SSW,198,8.1,8.1,87,0.00,CLR,,0.00,0.0,WeatherDisplay:10.37,2013-09-19 08:28:00,
2013-09-19 03:33:00,73.5,69.7,29.85,SSW,200,10.4,10.4,88,0.00,CLR,,0.00,0.0,WeatherDisplay:10.37,2013-09-19 08:33:00,
2013-09-19 03:39:00,73.5,69.7,29.85,SSW,203,6.9,6.9,88,0.00,CLR,,0.00,0.0,WeatherDisplay:10.37,2013-09-19 08:39:00,
2013-09-19 03:44:00,73.5,69.7,29.85,SSW,203,4.6,4.6,88,0.00,CLR,,0.00,0.0,WeatherDisplay:10.37,2013-09-19 08:44:00,
2013-09-19 03:49:00,73.5,69.7,29.85,SSW,203,4.6,4.6,88,0.00,CLR,,0.00,0.0,WeatherDisplay:10.37,2013-09-19 08:49:00,
2013-09-19 03:54:00,73.5,69.7,29.85,SSW,201,5.8,5.8,88,0.00,CLR,,0.00,0.0,WeatherDisplay:10.37,2013-09-19 08:54:00,
2013-09-19 03:59:00,73.4,69.6,29.85,South,175,9.2,9.2,88,0.00,CLR,,0.00,0.0,WeatherDisplay:10.37,2013-09-19 08:59:00,
2013-09-19 04:04:00,73.4,69.6,29.84,South,187,5.8,5.8,88,0.00,CLR,,0.00,0.0,WeatherDisplay:10.37,2013-09-19 09:04:00,
2013-09-19 04:09:00,73.4,69.6,29.85,South,187,0.0,0.0,88,0.00,CLR,,0.00,0.0,WeatherDisplay:10.37,2013-09-19 09:09:00,
2013-09-19 04:14:00,73.3,69.5,29.85,SSW,198,4.0,4.0,88,0.00,CLR,,0.00,0.0,WeatherDisplay:10.37,2013-09-19 09:14:00,
2013-09-19 04:19:00,73.3,69.5,29.85,SSW,198,5.8,5.8,88,0.00,CLR,,0.00,0.0,WeatherDisplay:10.37,2013-09-19 09:19:00,
2013-09-19 04:24:00,73.2,69.4,29.85,SSW,196,3.5,3.5,88,0.00,CLR,,0.00,0.0,WeatherDisplay:10.37,2013-09-19 09:24:00,
2013-09-19 04:29:00,73.1,69.3,29.84,SSW,196,3.5,3.5,88,0.00,CLR,,0.00,0.0,WeatherDisplay:10.37,2013-09-19 09:29:00,
2013-09-19 04:34:00,73.0,69.2,29.84,SSW,192,4.6,4.6,88,0.00,CLR,,0.00,0.0,WeatherDisplay:10.37,2013-09-19 09:34:00,
2013-09-19 04:39:00,73.0,69.2,29.84,SSW,192,5.8,5.8,88,0.00,CLR,,0.00,0.0,WeatherDisplay:10.37,2013-09-19 09:39:00,
2013-09-19 04:44:00,73.0,69.2,29.84,South,186,11.5,11.5,88,0.00,CLR,,0.00,0.0,WeatherDisplay:10.37,2013-09-19 09:44:00,
2013-09-19 04:49:00,72.9,69.5,29.83,SSW,193,10.4,10.4,89,0.00,CLR,,0.00,0.0,WeatherDisplay:10.37,2013-09-19 09:49:00,
2013-09-19 04:54:00,72.9,69.5,29.83,SSW,196,5.8,5.8,89,0.00,CLR,,0.00,0.0,WeatherDisplay:10.37,2013-09-19 09:54:00,
2013-09-19 04:59:00,72.9,69.5,29.83,SSW,192,6.9,6.9,89,0.00,CLR,,0.00,0.0,WeatherDisplay:10.37,2013-09-19 09:59:00,
2013-09-19 05:04:00,72.9,69.5,29.83,South,187,4.0,4.0,89,0.00,CLR,,0.00,0.0,WeatherDisplay:10.37,2013-09-19 10:04:00,
2013-09-19 05:09:00,72.8,69.4,29.84,SSW,205,6.9,6.9,89,0.00,CLR,,0.00,0.0,WeatherDisplay:10.37,2013-09-19 10:09:00,
2013-09-19 05:14:00,72.8,69.4,29.83,SSW,205,3.5,3.5,89,0.00,CLR,,0.00,0.0,WeatherDisplay:10.37,2013-09-19 10:14:00,
2013-09-19 05:19:00,72.7,69.3,29.83,SSW,205,2.0,2.0,89,0.00,CLR,,0.00,0.0,WeatherDisplay:10.37,2013-09-19 10:19:00,
2013-09-19 05:24:00,72.6,69.2,29.83,South,186,8.1,8.1,89,0.00,CLR,,0.00,0.0,WeatherDisplay:10.37,2013-09-19 10:24:00,
2013-09-19 05:29:00,72.6,69.2,29.83,SSW,194,9.2,9.2,89,0.00,CLR,,0.00,0.0,WeatherDisplay:10.37,2013-09-19 10:29:00,
2013-09-19 05:34:00,72.6,69.2,29.83,South,184,10.4,10.4,89,0.00,CLR,,0.00,0.0,WeatherDisplay:10.37,2013-09-19 10:34:00,
2013-09-19 05:39:00,72.5,69.1,29.83,South,191,2.0,0.0,89,0.00,CLR,,0.00,0.0,WeatherDisplay:10.37,2013-09-19 10:39:00,
2013-09-19 05:44:00,72.5,69.1,29.83,SSW,195,0.0,0.0,89,0.00,CLR,,0.00,0.0,WeatherDisplay:10.37,2013-09-19 10:44:00,
2013-09-19 05:49:00,72.4,69.0,29.83,SSW,195,4.6,4.6,89,0.00,CLR,,0.00,0.0,WeatherDisplay:10.37,2013-09-19 10:49:00,
2013-09-19 05:54:00,72.3,68.9,29.83,South,185,3.5,3.5,89,0.00,CLR,,0.00,0.0,WeatherDisplay:10.37,2013-09-19 10:54:00,
2013-09-19 05:59:00,72.2,68.8,29.83,South,179,7.0,7.0,89,0.00,CLR,,0.00,0.0,WeatherDisplay:10.37,2013-09-19 10:59:00,
2013-09-19 06:04:00,72.2,69.1,29.83,South,180,9.2,9.2,90,0.00,CLR,,0.00,0.0,WeatherDisplay:10.37,2013-09-19 11:04:00,
2013-09-19 06:09:00,72.1,69.0,29.83,SSE,166,4.6,4.6,90,0.00,CLR,,0.00,0.0,WeatherDisplay:10.37,2013-09-19 11:09:00,
2013-09-19 06:14:00,72.1,69.0,29.83,SSW,206,4.6,4.6,90,0.00,CLR,,0.00,0.0,WeatherDisplay:10.37,2013-09-19 11:14:00,
2013-09-19 06:19:00,72.0,68.9,29.83,SSW,202,8.1,8.1,90,0.00,CLR,,0.00,0.0,WeatherDisplay:10.37,2013-09-19 11:19:00,
2013-09-19 06:24:00,72.0,68.9,29.84,SSW,198,4.6,4.6,90,0.00,CLR,,0.00,0.0,WeatherDisplay:10.37,2013-09-19 11:24:00,
2013-09-19 06:29:00,72.0,68.9,29.84,SSW,192,4.6,4.6,90,0.00,CLR,,0.00,0.0,WeatherDisplay:10.37,2013-09-19 11:29:00,
2013-09-19 06:34:00,71.9,68.8,29.84,SSW,210,6.0,6.0,90,0.00,CLR,,0.00,0.0,WeatherDisplay:10.37,2013-09-19 11:34:00,
2013-09-19 06:39:00,71.9,68.8,29.84,South,180,3.5,3.5,90,0.00,CLR,,0.00,0.0,WeatherDisplay:10.37,2013-09-19 11:39:00,
2013-09-19 06:44:00,71.9,68.8,29.83,South,172,9.2,9.2,90,0.00,OVC,,0.00,0.0,WeatherDisplay:10.37,2013-09-19 11:44:00,
2013-09-19 06:49:00,71.8,68.7,29.84,SW,217,4.6,4.6,90,0.00,OVC,,0.00,0.0,WeatherDisplay:10.37,2013-09-19 11:49:00,
2013-09-19 06:54:00,71.8,68.7,29.84,South,183,5.8,5.8,90,0.00,BKN,,0.00,5.0,WeatherDisplay:10.37,2013-09-19 11:54:00,
2013-09-19 06:59:00,71.8,68.7,29.84,SSW,192,13.8,13.8,90,0.00,BKN,,0.00,5.0,WeatherDisplay:10.37,2013-09-19 11:59:00,
2013-09-19 07:04:00,71.8,68.7,29.84,SW,215,6.9,6.9,90,0.00,BKN,,0.00,5.0,WeatherDisplay:10.37,2013-09-19 12:04:00,
2013-09-19 07:09:00,71.8,68.7,29.84,South,191,11.5,11.5,90,0.00,BKN,,0.00,9.0,WeatherDisplay:10.37,2013-09-19 12:09:00,
2013-09-19 07:14:00,71.9,68.8,29.84,SSW,192,12.7,12.7,90,0.00,BKN,,0.00,12.0,WeatherDisplay:10.37,2013-09-19 12:14:00,
2013-09-19 07:19:00,71.9,69.1,29.84,SSW,204,10.4,10.4,91,0.00,BKN,,0.00,23.0,WeatherDisplay:10.37,2013-09-19 12:19:00,
2013-09-19 07:24:00,72.0,69.2,29.84,SSW,196,9.2,9.2,91,0.00,BKN,,0.00,63.0,WeatherDisplay:10.37,2013-09-19 12:24:00,
2013-09-19 07:29:00,72.0,69.2,29.84,South,182,4.0,4.0,91,0.00,BKN,,0.00,26.0,WeatherDisplay:10.37,2013-09-19 12:29:00,
2013-09-19 07:34:00,72.1,69.0,29.84,South,191,5.8,5.8,90,0.00,BKN,,0.00,53.0,WeatherDisplay:10.37,2013-09-19 12:34:00,
2013-09-19 07:39:00,72.1,69.0,29.84,SSW,213,8.1,8.1,90,0.00,BKN,,0.00,74.0,WeatherDisplay:10.37,2013-09-19 12:39:00,
2013-09-19 07:45:00,72.2,69.1,29.84,South,184,6.9,6.9,90,0.00,BKN,,0.00,44.0,WeatherDisplay:10.37,2013-09-19 12:45:00,
2013-09-19 07:50:00,72.3,69.2,29.84,SSW,200,6.0,6.0,90,0.00,BKN,,0.00,42.0,WeatherDisplay:10.37,2013-09-19 12:50:00,
2013-09-19 07:55:00,72.5,69.4,29.84,South,182,0.0,0.0,90,0.00,BKN,,0.00,46.0,WeatherDisplay:10.37,2013-09-19 12:55:00,
2013-09-19 08:00:00,72.6,69.5,29.84,South,182,13.8,13.8,90,0.00,BKN,,0.00,47.0,WeatherDisplay:10.37,2013-09-19 13:00:00,
2013-09-19 08:05:00,72.8,69.7,29.85,SSW,210,12.7,12.7,90,0.00,BKN,,0.00,49.0,WeatherDisplay:10.37,2013-09-19 13:05:00,
2013-09-19 08:10:00,73.0,69.9,29.85,South,175,10.4,10.4,90,0.00,BKN,,0.00,53.0,WeatherDisplay:10.37,2013-09-19 13:10:00,
2013-09-19 08:15:00,73.2,69.8,29.85,SSW,206,6.9,6.9,89,0.00,BKN,,0.00,53.0,WeatherDisplay:10.37,2013-09-19 13:15:00,
2013-09-19 08:20:00,73.4,70.0,29.85,South,183,5.8,5.8,89,0.00,BKN,,0.00,70.0,WeatherDisplay:10.37,2013-09-19 13:20:00,
2013-09-19 08:25:00,73.7,70.3,29.84,SSW,198,0.0,1.2,89,0.00,BKN,,0.00,60.0,WeatherDisplay:10.37,2013-09-19 13:25:00,
2013-09-19 08:30:00,74.0,70.2,29.84,SW,218,4.6,5.0,88,0.00,BKN,,0.00,56.0,WeatherDisplay:10.37,2013-09-19 13:30:00,
2013-09-19 08:35:00,74.4,70.3,29.84,SW,221,12.7,12.7,87,0.00,BKN,,0.00,58.0,WeatherDisplay:10.37,2013-09-19 13:35:00,
2013-09-19 08:40:00,74.8,70.3,29.84,SSW,197,16.1,16.1,86,0.00,BKN,,0.00,60.0,WeatherDisplay:10.37,2013-09-19 13:40:00,
2013-09-19 08:45:00,75.2,70.4,29.84,SSW,200,12.7,12.7,85,0.00,BKN,,0.00,62.0,WeatherDisplay:10.37,2013-09-19 13:45:00,
2013-09-19 08:50:00,75.6,70.8,29.84,SSW,212,12.7,12.7,85,0.00,BKN,,0.00,63.0,WeatherDisplay:10.37,2013-09-19 13:50:00,
2013-09-19 08:55:00,75.9,70.7,29.84,SW,217,15.0,15.0,84,0.00,BKN,,0.00,63.0,WeatherDisplay:10.37,2013-09-19 13:55:00,
2013-09-19 09:00:00,76.2,70.7,29.84,SSW,192,13.8,13.8,83,0.00,BKN,,0.00,65.0,WeatherDisplay:10.37,2013-09-19 14:00:00,
2013-09-19 09:06:00,76.6,71.0,29.84,South,188,6.9,8.0,83,0.00,BKN,,0.00,65.0,WeatherDisplay:10.37,2013-09-19 14:06:00,
2013-09-19 09:11:00,76.9,71.0,29.84,SSW,209,11.5,11.5,82,0.00,BKN,,0.00,69.0,WeatherDisplay:10.37,2013-09-19 14:11:00,
2013-09-19 09:16:00,77.3,71.0,29.84,SSW,206,18.4,18.4,81,0.00,BKN,,0.00,69.0,WeatherDisplay:10.37,2013-09-19 14:16:00,
2013-09-19 09:21:00,77.6,70.9,29.84,SSW,202,11.5,11.5,80,0.00,BKN,,0.00,70.0,WeatherDisplay:10.37,2013-09-19 14:21:00,
2013-09-19 09:26:00,78.0,71.0,29.84,South,189,19.6,19.6,79,0.00,BKN,,0.00,72.0,WeatherDisplay:10.37,2013-09-19 14:26:00,
2013-09-19 09:31:00,78.3,71.2,29.84,SW,216,11.5,11.5,79,0.00,BKN,,0.00,74.0,WeatherDisplay:10.37,2013-09-19 14:31:00,
2013-09-19 09:36:00,78.6,71.2,29.83,SW,216,9.0,9.0,78,0.00,BKN,,0.00,76.0,WeatherDisplay:10.37,2013-09-19 14:36:00,
2013-09-19 09:41:00,78.8,71.4,29.84,SSW,202,11.5,11.5,78,0.00,BKN,,0.00,76.0,WeatherDisplay:10.37,2013-09-19 14:41:00,
2013-09-19 09:46:00,79.1,71.6,29.84,SW,216,10.4,10.4,78,0.00,BKN,,0.00,79.0,WeatherDisplay:10.37,2013-09-19 14:46:00,
2013-09-19 09:51:00,79.5,71.7,29.83,South,184,17.3,17.3,77,0.00,BKN,,0.00,77.0,WeatherDisplay:10.37,2013-09-19 14:51:00,
2013-09-19 09:56:00,79.8,71.6,29.83,SSW,209,11.5,11.5,76,0.00,BKN,,0.00,79.0,WeatherDisplay:10.37,2013-09-19 14:56:00,
2013-09-19 10:01:00,80.2,71.6,29.83,SW,217,15.0,15.0,75,0.00,BKN,,0.00,81.0,WeatherDisplay:10.37,2013-09-19 15:01:00,
2013-09-19 10:06:00,80.5,71.8,29.83,SSW,205,12.7,12.7,75,0.00,BKN,,0.00,84.0,WeatherDisplay:10.37,2013-09-19 15:06:00,
2013-09-19 10:11:00,80.9,71.8,29.83,SW,217,14.0,14.0,74,0.00,BKN,,0.00,90.0,WeatherDisplay:10.37,2013-09-19 15:11:00,
2013-09-19 10:16:00,81.2,71.7,29.83,SSW,208,17.3,17.3,73,0.00,BKN,,0.00,132.0,WeatherDisplay:10.37,2013-09-19 15:16:00,
2013-09-19 10:21:00,81.5,72.0,29.83,SW,215,15.0,15.0,73,0.00,BKN,,0.00,176.0,WeatherDisplay:10.37,2013-09-19 15:21:00,
2013-09-19 10:26:00,81.8,72.3,29.83,SSW,194,6.9,6.9,73,0.00,BKN,,0.00,599.0,WeatherDisplay:10.37,2013-09-19 15:26:00,
2013-09-19 10:31:00,82.1,72.2,29.83,SSW,209,10.4,10.4,72,0.00,SCT,,0.00,622.0,WeatherDisplay:10.37,2013-09-19 15:31:00,
2013-09-19 10:36:00,82.5,72.6,29.83,SSW,205,11.5,11.5,72,0.00,FEW,,0.00,640.0,WeatherDisplay:10.37,2013-09-19 15:36:00,
2013-09-19 10:41:00,82.9,72.5,29.83,SW,214,12.7,12.7,71,0.00,FEW,,0.00,673.0,WeatherDisplay:10.37,2013-09-19 15:41:00,
2013-09-19 10:46:00,83.3,72.9,29.83,SSW,193,11.5,11.5,71,0.00,FEW,,0.00,682.0,WeatherDisplay:10.37,2013-09-19 15:46:00,
2013-09-19 10:51:00,83.8,73.0,29.83,SW,229,6.9,6.9,70,0.00,FEW,,0.00,684.0,WeatherDisplay:10.37,2013-09-19 15:51:00,
2013-09-19 10:56:00,84.2,72.5,29.83,South,178,18.4,18.4,68,0.00,FEW,,0.00,691.0,WeatherDisplay:10.37,2013-09-19 15:56:00,
2013-09-19 11:01:00,84.7,72.5,29.83,South,185,11.5,11.5,67,0.00,FEW,,0.00,717.0,WeatherDisplay:10.37,2013-09-19 16:01:00,
2013-09-19 11:06:00,84.8,72.2,29.83,SSW,209,11.5,11.5,66,0.00,SCT,,0.00,357.0,WeatherDisplay:10.37,2013-09-19 16:06:00,
2013-09-19 11:11:00,84.8,72.6,29.83,SSW,200,13.8,13.8,67,0.00,BKN,,0.00,777.0,WeatherDisplay:10.37,2013-09-19 16:11:00,
2013-09-19 11:16:00,85.1,72.9,29.83,SSW,202,10.4,10.4,67,0.00,SCT,,0.00,816.0,WeatherDisplay:10.37,2013-09-19 16:16:00,
2013-09-19 11:21:00,85.4,72.3,29.83,SSW,194,13.8,13.8,65,0.00,SCT,,0.00,329.0,WeatherDisplay:10.37,2013-09-19 16:21:00,
2013-09-19 11:26:00,85.4,72.3,29.83,SSW,202,15.0,15.0,65,0.00,BKN,,0.00,257.0,WeatherDisplay:10.37,2013-09-19 16:26:00,
2013-09-19 11:31:00,85.5,72.8,29.82,SSW,197,5.8,5.8,66,0.00,BKN,,0.00,777.0,WeatherDisplay:10.37,2013-09-19 16:31:00,
2013-09-19 11:36:00,85.9,72.8,29.82,SSW,192,10.0,10.0,65,0.00,SCT,,0.00,749.0,WeatherDisplay:10.37,2013-09-19 16:36:00,
2013-09-19 11:41:00,86.3,72.7,29.82,South,191,16.1,16.1,64,0.00,CLR,,0.00,737.0,WeatherDisplay:10.37,2013-09-19 16:41:00,
2013-09-19 11:46:00,86.7,72.6,29.82,SSW,192,11.5,11.5,63,0.00,FEW,,0.00,752.0,WeatherDisplay:10.37,2013-09-19 16:46:00,
2013-09-19 11:51:00,87.2,72.6,29.81,SE,137,19.6,19.6,62,0.00,FEW,,0.00,763.0,WeatherDisplay:10.37,2013-09-19 16:51:00,
2013-09-19 11:56:00,87.6,72.5,29.81,South,184,11.5,11.5,61,0.00,FEW,,0.00,756.0,WeatherDisplay:10.37,2013-09-19 16:56:00,
2013-09-19 12:01:00,88.2,73.5,29.81,SW,222,15.0,15.0,62,0.00,FEW,,0.00,758.0,WeatherDisplay:10.37,2013-09-19 17:01:00,
2013-09-19 12:06:00,88.5,72.3,29.81,South,176,19.6,19.6,59,0.00,FEW,,0.00,761.0,WeatherDisplay:10.37,2013-09-19 17:06:00,
2013-09-19 12:11:00,88.8,72.6,29.81,SW,225,12.7,12.7,59,0.00,FEW,,0.00,766.0,WeatherDisplay:10.37,2013-09-19 17:11:00,
2013-09-19 12:16:00,89.1,71.9,29.80,SSW,202,20.7,20.7,57,0.00,FEW,,0.00,775.0,WeatherDisplay:10.37,2013-09-19 17:16:00,
2013-09-19 12:21:00,89.3,72.1,29.80,SSW,206,13.8,13.8,57,0.00,FEW,,0.00,779.0,WeatherDisplay:10.37,2013-09-19 17:21:00,
2013-09-19 12:26:00,89.6,71.8,29.80,SW,218,9.2,9.2,56,0.00,FEW,,0.00,777.0,WeatherDisplay:10.37,2013-09-19 17:26:00,
2013-09-19 12:31:00,89.9,72.6,29.80,SSW,194,11.5,11.5,57,0.00,FEW,,0.00,784.0,WeatherDisplay:10.37,2013-09-19 17:31:00,
2013-09-19 12:36:00,90.1,71.8,29.80,SSW,203,11.5,11.5,55,0.00,FEW,,0.00,777.0,WeatherDisplay:10.37,2013-09-19 17:36:00,
2013-09-19 12:41:00,90.1,72.3,29.80,SW,223,13.8,13.8,56,0.00,FEW,,0.00,784.0,WeatherDisplay:10.37,2013-09-19 17:41:00,
2013-09-19 12:46:00,90.6,71.7,29.80,SW,224,15.0,15.0,54,0.00,FEW,,0.00,810.0,WeatherDisplay:10.37,2013-09-19 17:46:00,
2013-09-19 12:51:00,90.8,71.3,29.79,SSW,196,17.3,17.3,53,0.00,CLR,,0.00,826.0,WeatherDisplay:10.37,2013-09-19 17:51:00,
2013-09-19 12:56:00,91.0,72.6,29.80,SSW,192,11.5,11.5,55,0.00,CLR,,0.00,780.0,WeatherDisplay:10.37,2013-09-19 17:56:00,
2013-09-19 13:01:00,91.2,71.7,29.80,SSW,209,16.1,16.1,53,0.00,FEW,,0.00,784.0,WeatherDisplay:10.37,2013-09-19 18:01:00,
2013-09-19 13:06:00,91.3,72.3,29.79,SSW,195,16.1,16.1,54,0.00,FEW,,0.00,798.0,WeatherDisplay:10.37,2013-09-19 18:06:00,
2013-09-19 13:11:00,91.4,71.9,29.79,SSW,205,18.4,18.4,53,0.00,FEW,,0.00,209.0,WeatherDisplay:10.37,2013-09-19 18:11:00,
2013-09-19 13:16:00,91.3,71.8,29.79,SSW,201,19.6,19.6,53,0.00,SCT,,0.00,805.0,WeatherDisplay:10.37,2013-09-19 18:16:00,
2013-09-19 13:21:00,91.3,71.8,29.79,WSW,240,15.0,15.0,53,0.00,SCT,,0.00,786.0,WeatherDisplay:10.37,2013-09-19 18:21:00,
2013-09-19 13:26:00,91.7,72.1,29.79,SSW,205,18.4,18.4,53,0.00,FEW,,0.00,821.0,WeatherDisplay:10.37,2013-09-19 18:26:00,
2013-09-19 13:31:00,91.8,72.2,29.79,South,191,11.5,11.5,53,0.00,FEW,,0.00,798.0,WeatherDisplay:10.37,2013-09-19 18:31:00,
2013-09-19 13:36:00,92.1,71.9,29.78,South,189,11.5,11.5,52,0.00,FEW,,0.00,802.0,WeatherDisplay:10.37,2013-09-19 18:36:00,
2013-09-19 13:41:00,92.3,72.1,29.78,SW,232,12.0,12.0,52,0.00,CLR,,0.00,779.0,WeatherDisplay:10.37,2013-09-19 18:41:00,
2013-09-19 13:46:00,92.4,72.8,29.78,SSE,159,11.5,11.5,53,0.00,CLR,,0.00,770.0,WeatherDisplay:10.37,2013-09-19 18:46:00,
2013-09-19 13:51:00,92.4,72.8,29.78,SSW,206,11.5,11.5,53,0.00,FEW,,0.00,742.0,WeatherDisplay:10.37,2013-09-19 18:51:00,
2013-09-19 13:56:00,92.3,72.1,29.78,SW,215,11.5,11.5,52,0.00,FEW,,0.00,740.0,WeatherDisplay:10.37,2013-09-19 18:56:00,
2013-09-19 14:01:00,92.3,72.1,29.78,SSW,194,16.1,16.1,52,0.00,FEW,,0.00,728.0,WeatherDisplay:10.37,2013-09-19 19:01:00,
2013-09-19 14:06:00,92.0,72.4,29.77,SSW,192,16.1,16.1,53,0.00,FEW,,0.00,721.0,WeatherDisplay:10.37,2013-09-19 19:06:00,
2013-09-19 14:11:00,92.3,73.2,29.77,SSW,200,12.7,12.7,54,0.00,FEW,,0.00,721.0,WeatherDisplay:10.37,2013-09-19 19:11:00,
2013-09-19 14:16:00,92.6,72.4,29.77,South,182,13.8,13.8,52,0.00,FEW,,0.00,710.0,WeatherDisplay:10.37,2013-09-19 19:16:00,
2013-09-19 14:21:00,92.8,72.6,29.77,South,184,13.8,13.8,52,0.00,FEW,,0.00,705.0,WeatherDisplay:10.37,2013-09-19 19:21:00,
2013-09-19 14:26:00,92.7,71.9,29.77,South,174,12.7,12.7,51,0.00,FEW,,0.00,701.0,WeatherDisplay:10.37,2013-09-19 19:26:00,
2013-09-19 14:31:00,92.7,71.9,29.76,SSW,206,19.6,19.6,51,0.00,FEW,,0.00,686.0,WeatherDisplay:10.37,2013-09-19 19:31:00,
2013-09-19 14:36:00,92.7,71.9,29.76,South,181,16.1,16.1,51,0.00,FEW,,0.00,673.0,WeatherDisplay:10.37,2013-09-19 19:36:00,
2013-09-19 14:41:00,92.6,71.8,29.76,SW,220,17.3,17.3,51,0.00,FEW,,0.00,657.0,WeatherDisplay:10.37,2013-09-19 19:41:00,
2013-09-19 14:46:00,92.5,71.7,29.76,SW,215,11.5,11.5,51,0.00,FEW,,0.00,661.0,WeatherDisplay:10.37,2013-09-19 19:46:00,
2013-09-19 14:51:00,92.6,71.8,29.75,South,191,16.1,16.1,51,0.00,FEW,,0.00,647.0,WeatherDisplay:10.37,2013-09-19 19:51:00,
2013-09-19 14:57:00,92.9,72.1,29.75,SSW,203,15.0,15.0,51,0.00,FEW,,0.00,638.0,WeatherDisplay:10.37,2013-09-19 19:57:00,
2013-09-19 15:02:00,93.1,71.7,29.75,SSW,192,11.0,11.0,50,0.00,FEW,,0.00,624.0,WeatherDisplay:10.37,2013-09-19 20:02:00,
2013-09-19 15:07:00,93.3,72.5,29.75,SSW,194,6.9,6.9,51,0.00,FEW,,0.00,610.0,WeatherDisplay:10.37,2013-09-19 20:07:00,
2013-09-19 15:12:00,93.6,72.2,29.75,WSW,241,8.1,8.1,50,0.00,FEW,,0.00,622.0,WeatherDisplay:10.37,2013-09-19 20:12:00,
2013-09-19 15:17:00,93.7,71.7,29.74,South,175,6.9,6.9,49,0.00,FEW,,0.00,612.0,WeatherDisplay:10.37,2013-09-19 20:17:00,
2013-09-19 15:22:00,93.6,71.6,29.74,South,180,11.5,11.5,49,0.00,FEW,,0.00,585.0,WeatherDisplay:10.37,2013-09-19 20:22:00,
2013-09-19 15:27:00,93.7,71.0,29.74,SW,219,16.1,16.1,48,0.00,FEW,,0.00,577.0,WeatherDisplay:10.37,2013-09-19 20:27:00,
2013-09-19 15:32:00,93.9,71.8,29.73,SSW,196,10.4,10.4,49,0.00,FEW,,0.00,545.0,WeatherDisplay:10.37,2013-09-19 20:32:00,
2013-09-19 15:37:00,94.3,72.2,29.73,SSW,206,10.0,10.0,49,0.00,FEW,,0.00,540.0,WeatherDisplay:10.37,2013-09-19 20:37:00,
2013-09-19 15:42:00,94.4,72.3,29.73,SSW,213,6.9,6.9,49,0.00,FEW,,0.00,515.0,WeatherDisplay:10.37,2013-09-19 20:42:00,
2013-09-19 15:47:00,94.3,71.6,29.72,SSW,196,13.8,13.8,48,0.00,SCT,,0.00,506.0,WeatherDisplay:10.37,2013-09-19 20:47:00,
2013-09-19 15:52:00,94.1,71.4,29.72,South,183,10.4,10.4,48,0.00,SCT,,0.00,497.0,WeatherDisplay:10.37,2013-09-19 20:52:00,
2013-09-19 15:57:00,93.9,71.8,29.71,South,187,13.8,13.8,49,0.00,SCT,,0.00,469.0,WeatherDisplay:10.37,2013-09-19 20:57:00,
2013-09-19 16:02:00,93.7,71.7,29.71,SSW,213,16.1,16.1,49,0.00,SCT,,0.00,462.0,WeatherDisplay:10.37,2013-09-19 21:02:00,
2013-09-19 16:07:00,93.5,71.5,29.71,South,173,12.7,12.7,49,0.00,SCT,,0.00,455.0,WeatherDisplay:10.37,2013-09-19 21:07:00,
2013-09-19 16:12:00,93.5,71.5,29.70,SSE,156,10.4,10.4,49,0.00,SCT,,0.00,431.0,WeatherDisplay:10.37,2013-09-19 21:12:00,
2013-09-19 16:17:00,93.6,72.2,29.70,South,173,15.0,15.0,50,0.00,SCT,,0.00,438.0,WeatherDisplay:10.37,2013-09-19 21:17:00,
2013-09-19 16:22:00,93.5,71.5,29.70,South,172,12.7,12.7,49,0.00,SCT,,0.00,413.0,WeatherDisplay:10.37,2013-09-19 21:22:00,
2013-09-19 16:27:00,93.3,71.3,29.70,SSW,209,12.7,12.7,49,0.00,SCT,,0.00,397.0,WeatherDisplay:10.37,2013-09-19 21:27:00,
2013-09-19 16:32:00,93.2,71.2,29.70,South,191,19.6,19.6,49,0.00,SCT,,0.00,378.0,WeatherDisplay:10.37,2013-09-19 21:32:00,
2013-09-19 16:37:00,93.1,71.1,29.70,SSW,194,12.7,12.7,49,0.00,SCT,,0.00,345.0,WeatherDisplay:10.37,2013-09-19 21:37:00,
2013-09-19 16:42:00,92.8,70.8,29.69,South,182,10.4,10.4,49,0.00,SCT,,0.00,91.0,WeatherDisplay:10.37,2013-09-19 21:42:00,
2013-09-19 16:47:00,92.3,71.0,29.69,SSE,159,9.2,9.2,50,0.00,BKN,,0.00,149.0,WeatherDisplay:10.37,2013-09-19 21:47:00,
2013-09-19 16:52:00,92.2,72.0,29.69,SSW,193,7.0,7.0,52,0.00,BKN,,0.00,352.0,WeatherDisplay:10.37,2013-09-19 21:52:00,
2013-09-19 16:57:00,92.2,71.5,29.68,SSW,192,5.8,5.8,51,0.00,SCT,,0.00,309.0,WeatherDisplay:10.37,2013-09-19 21:57:00,
2013-09-19 17:02:00,92.4,70.5,29.68,South,191,19.6,19.6,49,0.00,SCT,,0.00,287.0,WeatherDisplay:10.37,2013-09-19 22:02:00,
2013-09-19 17:07:00,92.3,70.4,29.68,South,182,15.0,15.0,49,0.00,SCT,,0.00,276.0,WeatherDisplay:10.37,2013-09-19 22:07:00,
2013-09-19 17:12:00,92.2,70.3,29.68,SSW,205,16.1,16.1,49,0.00,SCT,,0.00,257.0,WeatherDisplay:10.37,2013-09-19 22:12:00,
2013-09-19 17:17:00,91.9,70.6,29.68,SSW,205,13.8,13.8,50,0.00,SCT,,0.00,244.0,WeatherDisplay:10.37,2013-09-19 22:17:00,
2013-09-19 17:22:00,91.8,70.5,29.68,SSE,164,11.5,11.5,50,0.00,SCT,,0.00,237.0,WeatherDisplay:10.37,2013-09-19 22:22:00,
2013-09-19 17:27:00,91.7,69.8,29.69,SSW,207,15.0,15.0,49,0.00,SCT,,0.00,221.0,WeatherDisplay:10.37,2013-09-19 22:27:00,
2013-09-19 17:32:00,91.6,70.9,29.69,South,172,11.5,11.5,51,0.00,SCT,,0.00,200.0,WeatherDisplay:10.37,2013-09-19 22:32:00,
2013-09-19 17:37:00,91.3,70.6,29.69,South,190,11.5,11.5,51,0.00,SCT,,0.00,200.0,WeatherDisplay:10.37,2013-09-19 22:37:00,
2013-09-19 17:42:00,91.2,70.0,29.70,South,189,10.4,10.4,50,0.00,SCT,,0.00,178.0,WeatherDisplay:10.37,2013-09-19 22:42:00,
2013-09-19 17:47:00,91.1,69.3,29.70,SSW,199,12.7,12.7,49,0.00,BKN,,0.00,70.0,WeatherDisplay:10.37,2013-09-19 22:47:00,
2013-09-19 17:52:00,91.0,69.2,29.70,South,173,11.5,11.5,49,0.00,BKN,,0.00,76.0,WeatherDisplay:10.37,2013-09-19 22:52:00,
2013-09-19 17:57:00,90.6,70.0,29.70,SSW,198,11.5,11.5,51,0.00,BKN,,0.00,21.0,WeatherDisplay:10.37,2013-09-19 22:57:00,
2013-09-19 18:02:00,90.3,70.3,29.71,South,189,6.9,6.9,52,0.00,BKN,,0.00,16.0,WeatherDisplay:10.37,2013-09-19 23:02:00,
2013-09-19 18:07:00,89.7,70.8,29.71,South,184,18.4,18.4,54,0.00,BKN,,0.00,14.0,WeatherDisplay:10.37,2013-09-19 23:07:00,
2013-09-19 18:12:00,89.1,70.8,29.72,SSW,195,10.4,10.4,55,0.00,BKN,,0.00,14.0,WeatherDisplay:10.37,2013-09-19 23:12:00,
2013-09-19 18:17:00,88.5,71.3,29.72,SW,214,11.5,11.5,57,0.00,BKN,,0.00,16.0,WeatherDisplay:10.37,2013-09-19 23:17:00,
2013-09-19 18:22:00,87.9,71.8,29.72,South,172,9.2,9.2,59,0.00,BKN,,0.00,16.0,WeatherDisplay:10.37,2013-09-19 23:22:00,
2013-09-19 18:27:00,87.5,71.4,29.72,SSE,161,5.8,5.8,59,0.00,BKN,,0.00,19.0,WeatherDisplay:10.37,2013-09-19 23:27:00,
2013-09-19 18:32:00,87.2,71.6,29.72,SSW,194,6.9,6.9,60,0.00,BKN,,0.00,19.0,WeatherDisplay:10.37,2013-09-19 23:32:00,
2013-09-19 18:37:00,87.0,71.9,29.72,South,171,6.9,6.9,61,0.00,BKN,,0.00,14.0,WeatherDisplay:10.37,2013-09-19 23:37:00,
2013-09-19 18:42:00,86.7,72.1,29.72,ENE,75,6.9,6.9,62,0.00,BKN,,0.00,11.0,WeatherDisplay:10.37,2013-09-19 23:42:00,
2013-09-19 18:47:00,86.4,71.8,29.73,SSW,197,2.3,2.3,62,0.00,BKN,,0.00,7.0,WeatherDisplay:10.37,2013-09-19 23:47:00,
2013-09-19 18:52:00,86.1,72.0,29.73,South,187,10.4,10.4,63,0.00,BKN,,0.00,0.0,WeatherDisplay:10.37,2013-09-19 23:52:00,
2013-09-19 18:57:00,85.7,72.1,29.73,SSE,161,8.1,8.1,64,0.00,OVC,,0.00,0.0,WeatherDisplay:10.37,2013-09-19 23:57:00,
2013-09-19 19:02:00,85.4,71.8,29.73,South,180,11.5,11.5,64,0.00,OVC,,0.00,0.0,WeatherDisplay:10.37,2013-09-20 00:02:00,
2013-09-19 19:07:00,85.1,72.0,29.73,South,180,10.4,10.4,65,0.00,CLR,,0.00,0.0,WeatherDisplay:10.37,2013-09-20 00:07:00,
2013-09-19 19:12:00,84.9,72.3,29.74,South,169,9.2,9.2,66,0.00,CLR,,0.00,0.0,WeatherDisplay:10.37,2013-09-20 00:12:00,
2013-09-19 19:18:00,84.7,72.1,29.74,South,188,8.1,8.1,66,0.00,CLR,,0.00,0.0,WeatherDisplay:10.37,2013-09-20 00:18:00,
2013-09-19 19:23:00,84.5,71.9,29.74,SSE,155,0.0,1.1,66,0.00,CLR,,0.00,0.0,WeatherDisplay:10.37,2013-09-20 00:23:00,
2013-09-19 19:28:00,84.3,72.1,29.75,SSW,195,9.2,9.2,67,0.00,CLR,,0.00,0.0,WeatherDisplay:10.37,2013-09-20 00:28:00,
2013-09-19 19:33:00,84.1,72.0,29.75,SSE,167,0.0,0.0,67,0.00,CLR,,0.00,0.0,WeatherDisplay:10.37,2013-09-20 00:33:00,
2013-09-19 19:38:00,83.9,71.8,29.75,SSW,195,5.8,5.8,67,0.00,CLR,,0.00,0.0,WeatherDisplay:10.37,2013-09-20 00:38:00,
2013-09-19 19:43:00,83.5,70.5,29.80,NW,309,11.5,11.5,65,0.00,CLR,,0.00,0.0,WeatherDisplay:10.37,2013-09-20 00:43:00,
2013-09-19 19:48:00,80.9,65.7,29.80,WNW,303,19.6,19.6,60,0.00,CLR,,0.00,0.0,WeatherDisplay:10.37,2013-09-20 00:48:00,
2013-09-19 19:53:00,78.6,65.8,29.81,West,269,16.1,16.1,65,0.00,CLR,,0.00,0.0,WeatherDisplay:10.37,2013-09-20 00:53:00,
2013-09-19 19:58:00,77.3,66.3,29.82,NNW,340,13.8,13.8,69,0.00,CLR,,0.00,0.0,WeatherDisplay:10.37,2013-09-20 00:58:00,
2013-09-19 20:03:00,75.9,67.4,29.82,WNW,302,6.9,6.9,75,0.00,CLR,,0.00,0.0,WeatherDisplay:10.37,2013-09-20 01:03:00,
2013-09-19 20:08:00,74.5,67.6,29.82,West,276,3.5,3.5,79,0.00,CLR,,0.00,0.0,WeatherDisplay:10.37,2013-09-20 01:08:00,
2013-09-19 20:13:00,73.5,67.7,29.82,NNW,330,4.6,4.6,82,0.05,RA,,0.05,0.0,WeatherDisplay:10.37,2013-09-20 01:13:00,
2013-09-19 20:18:00,72.6,67.5,29.81,West,279,3.5,3.5,84,0.09,RA,,0.09,0.0,WeatherDisplay:10.37,2013-09-20 01:18:00,
2013-09-19 20:23:00,72.0,67.6,29.82,West,274,0.0,0.0,86,0.10,RA,,0.10,0.0,WeatherDisplay:10.37,2013-09-20 01:23:00,
2013-09-19 20:28:00,71.5,67.4,29.81,WNW,284,2.3,2.3,87,0.11,RA,,0.11,0.0,WeatherDisplay:10.37,2013-09-20 01:28:00,
2013-09-19 20:33:00,71.2,67.5,29.81,West,280,4.6,4.6,88,0.11,RA,,0.11,0.0,WeatherDisplay:10.37,2013-09-20 01:33:00,
2013-09-19 20:38:00,71.0,67.6,29.81,West,281,0.0,0.0,89,0.11,CLR,,0.11,0.0,WeatherDisplay:10.37,2013-09-20 01:38:00,
2013-09-19 20:43:00,70.8,67.4,29.80,West,280,0.0,0.0,89,0.12,RA,,0.12,0.0,WeatherDisplay:10.37,2013-09-20 01:43:00,
2013-09-19 20:48:00,70.8,67.7,29.80,West,281,0.0,0.0,90,0.12,RA,,0.12,0.0,WeatherDisplay:10.37,2013-09-20 01:48:00,
2013-09-19 20:53:00,70.7,67.6,29.80,West,280,0.0,0.0,90,0.12,CLR,,0.12,0.0,WeatherDisplay:10.37,2013-09-20 01:53:00,
2013-09-19 20:58:00,70.6,67.5,29.79,West,281,0.0,0.0,90,0.12,CLR,,0.12,0.0,WeatherDisplay:10.37,2013-09-20 01:58:00,
2013-09-19 21:03:00,70.6,67.5,29.79,West,281,0.0,0.0,90,0.12,CLR,,0.12,0.0,WeatherDisplay:10.37,2013-09-20 02:03:00,
2013-09-19 21:08:00,70.5,67.4,29.80,West,281,0.0,0.0,90,0.12,CLR,,0.12,0.0,WeatherDisplay:10.37,2013-09-20 02:08:00,
2013-09-19 21:13:00,70.5,67.7,29.80,West,281,0.0,0.0,91,0.07,CLR,,0.12,0.0,WeatherDisplay:10.37,2013-09-20 02:13:00,
2013-09-19 21:18:00,70.5,67.7,29.81,West,280,0.0,0.0,91,0.03,CLR,,0.12,0.0,WeatherDisplay:10.37,2013-09-20 02:18:00,
2013-09-19 21:23:00,70.4,67.6,29.81,West,281,0.0,0.0,91,0.02,CLR,,0.12,0.0,WeatherDisplay:10.37,2013-09-20 02:23:00,
2013-09-19 21:28:00,70.4,67.6,29.81,West,280,0.0,0.0,91,0.01,CLR,,0.12,0.0,WeatherDisplay:10.37,2013-09-20 02:28:00,
2013-09-19 21:33:00,70.3,67.9,29.81,WSW,240,0.0,0.0,92,0.01,CLR,,0.12,0.0,WeatherDisplay:10.37,2013-09-20 02:33:00,
2013-09-19 21:38:00,70.1,67.7,29.81,SW,219,4.6,0.0,92,0.01,CLR,,0.12,0.0,WeatherDisplay:10.37,2013-09-20 02:38:00,
2013-09-19 21:43:00,70.0,67.6,29.81,SW,219,0.0,0.0,92,0.00,CLR,,0.12,0.0,WeatherDisplay:10.37,2013-09-20 02:43:00,
2013-09-19 21:48:00,69.9,67.5,29.81,SW,220,0.0,0.0,92,0.00,CLR,,0.12,0.0,WeatherDisplay:10.37,2013-09-20 02:48:00,
2013-09-19 21:53:00,69.8,67.4,29.80,SW,220,0.0,0.0,92,0.00,CLR,,0.13,0.0,WeatherDisplay:10.37,2013-09-20 02:53:00,
2013-09-19 21:58:00,69.7,67.6,29.80,SW,220,0.0,0.0,93,0.01,RA,,0.13,0.0,WeatherDisplay:10.37,2013-09-20 02:58:00,
2013-09-19 22:03:00,69.6,67.5,29.79,SW,219,0.0,0.0,93,0.01,RA,,0.14,0.0,WeatherDisplay:10.37,2013-09-20 03:03:00,
2013-09-19 22:08:00,69.5,67.4,29.79,SW,221,0.0,0.0,93,0.02,RA,,0.14,0.0,WeatherDisplay:10.37,2013-09-20 03:08:00,
2013-09-19 22:13:00,69.5,67.4,29.80,SSW,203,4.6,0.0,93,0.03,RA,,0.15,0.0,WeatherDisplay:10.37,2013-09-20 03:13:00,
2013-09-19 22:19:00,69.4,67.3,29.80,SSE,163,5.8,0.0,93,0.04,RA,,0.16,0.0,WeatherDisplay:10.37,2013-09-20 03:19:00,
2013-09-19 22:24:00,69.4,67.3,29.82,South,184,0.0,0.0,93,0.05,RA,,0.17,0.0,WeatherDisplay:10.37,2013-09-20 03:24:00,
2013-09-19 22:29:00,69.3,67.2,29.82,SSW,199,0.0,0.0,93,0.06,RA,,0.18,0.0,WeatherDisplay:10.37,2013-09-20 03:29:00,
2013-09-19 22:34:00,69.2,67.1,29.82,SSW,200,0.0,0.0,93,0.07,RA,,0.19,0.0,WeatherDisplay:10.37,2013-09-20 03:34:00,
2013-09-19 22:39:00,69.2,67.4,29.85,SW,226,6.9,6.9,94,0.08,RA,,0.21,0.0,WeatherDisplay:10.37,2013-09-20 03:39:00,
2013-09-19 22:44:00,69.1,67.3,29.85,SSW,213,5.8,5.8,94,0.11,RA,,0.24,0.0,WeatherDisplay:10.37,2013-09-20 03:44:00,
2013-09-19 22:49:00,69.1,67.3,29.84,SSW,213,0.0,0.0,94,0.14,RA,,0.26,0.0,WeatherDisplay:10.37,2013-09-20 03:49:00,
2013-09-19 22:54:00,69.0,67.2,29.84,SSW,213,0.0,0.0,94,0.14,RA,,0.27,0.0,WeatherDisplay:10.37,2013-09-20 03:54:00,
2013-09-19 22:59:00,69.0,67.2,29.84,SSW,213,0.0,0.0,94,0.15,RA,,0.28,0.0,WeatherDisplay:10.37,2013-09-20 03:59:00,
2013-09-19 23:01:00,69.0,67.2,29.84,SSW,213,0.0,0.0,94,0.16,RA,,0.29,0.0,WeatherDisplay:10.37,2013-09-20 04:01:00,
2013-09-19 23:06:00,68.9,67.1,29.83,SSW,213,0.0,0.0,94,0.15,RA,,0.30,0.0,WeatherDisplay:10.37,2013-09-20 04:06:00,
2013-09-19 23:11:00,68.9,67.4,29.83,SSW,213,0.0,0.0,95,0.16,RA,,0.32,0.0,WeatherDisplay:10.37,2013-09-20 04:11:00,
2013-09-19 23:16:00,68.8,67.3,29.83,SSW,209,0.0,0.0,95,0.18,RA,,0.33,0.0,WeatherDisplay:10.37,2013-09-20 04:16:00,
2013-09-19 23:21:00,68.8,67.3,29.82,South,190,0.0,0.0,95,0.18,RA,,0.34,0.0,WeatherDisplay:10.37,2013-09-20 04:21:00,
2013-09-19 23:26:00,68.8,67.3,29.82,South,191,0.0,0.0,95,0.18,RA,,0.35,0.0,WeatherDisplay:10.37,2013-09-20 04:26:00,
2013-09-19 23:31:00,68.7,67.2,29.82,SSW,192,2.0,2.0,95,0.17,RA,,0.36,0.0,WeatherDisplay:10.37,2013-09-20 04:31:00,
2013-09-19 23:36:00,68.6,67.1,29.82,South,190,0.0,0.0,95,0.17,RA,,0.37,0.0,WeatherDisplay:10.37,2013-09-20 04:36:00,
2013-09-19 23:41:00,68.6,67.1,29.82,SSE,159,3.5,0.0,95,0.16,RA,,0.38,0.0,WeatherDisplay:10.37,2013-09-20 04:41:00,
2013-09-19 23:46:00,68.5,67.0,29.83,SSW,196,3.5,3.5,95,0.14,RA,,0.39,0.0,WeatherDisplay:10.37,2013-09-20 04:46:00,